Airfield :
LOGIN :

Register | Disclaimer

   EN    FR    IT 

 










Legend :    VFR   Marginal VFR   IFR   Intensive IFR   Very Intensive IFR
Visi :
Ceiling :
>= 8 km
>= 3000ft
5 to 8 km
1000 to 3000 ft
1500m to 5 km
500 to 1000 ft
800 to 1500m
200 to 500 ft
< 800m
< 200 ft
Symbols :   Thunderstorms  Fog  Heavy snow  Heavy precipitations  Wind > 20 kt
SIGMETs :     Misc.  Thunderstorms  Icing  Turbulence  Mountain Waves  Volcanic Ashes







- Airport Elevation : 82 ft
- IATA code : QIE
- Download approach charts


LFMI - Istres

CURRENT METAR :
  • 220400Z AUTO 02008KT CAVOK 13/12 Q1019 NOSIG

EXPIRED METARs :
  • 220330Z AUTO 02008KT CAVOK 13/12 Q1019 NOSIG
  • 220300Z AUTO 02006KT CAVOK 13/12 Q1019 NOSIG
  • 220230Z AUTO 02005KT CAVOK 13/12 Q1019 NOSIG
  • 220200Z AUTO 02006KT CAVOK 14/12 Q1019 TEMPO BKN013 BKN020
  • 220130Z AUTO 03004KT CAVOK 14/12 Q1019 TEMPO BKN013 BKN020

TAF TAF LFMI
Valid from the 22 at 03:00 until the 23 at 03:00 UTC


220200Z 2203/2303 VRB05KT CAVOK
PROB30
TEMPO 2203/2209 SCT015 BKN025
TEMPO 2213/2218 22008KT
No reported NOTAMs for that airfield.



MET'MAP, your aeronautical weather chart ! - Copyright ORBIFLY December 2007 - Disclaimer

ORBIFLY MET'MAP TEAM :

Programming & Development : Alexandra Zaïnal
Concept & Development : Baudouin d'Aumeries
Co-Development & Prog : Marc-Olivier Méhu
Technical & hardware support : Manuel Goepfert

Contact : metmap@orbifly.com




SOURCES & CREDITS :

   NOAA